Time;durP1;ratioP1;P1;durP2;ratioP2;P2;SDS_P1;SDS_P2;PMS_P1;PMS_P2;Temp;Humidity;BMP_temperature;BMP_pressure;BME280_temperature;BME280_humidity;BME280_pressure;Samples;Min_cycle;Max_cycle;Signal;HPM_P1;HPM_P2
2023/10/21 00:03:16;;;;;;;;;;;11.30;99.90;;;;;;12607232;28;20402;-37
2023/10/21 00:09:18;;;;;;;;;;;11.30;99.90;;;;;;12610156;28;19932;-36
2023/10/21 00:15:20;;;;;;;;;;;11.40;99.90;;;;;;12587880;28;20281;-37
2023/10/21 00:21:22;;;;;;;;;;;11.40;99.90;;;;;;12555581;28;20042;-37
2023/10/21 00:27:24;;;;;;;;;;;11.50;99.90;;;;;;12562158;28;19928;-37
2023/10/21 00:33:25;;;;;;;;;;;11.50;99.90;;;;;;12550654;28;19932;-36
2023/10/21 00:39:27;;;;;;;;;;;11.60;99.90;;;;;;12554408;28;19928;-36
2023/10/21 00:45:29;;;;;;;;;;;11.60;99.90;;;;;;12558633;28;20120;-37
2023/10/21 00:51:32;;;;;;;;;;;11.50;99.90;;;;;;12554460;28;21022;-39
2023/10/21 00:57:35;;;;;;;;;;;11.50;99.90;;;;;;12536957;28;19929;-36
2023/10/21 01:03:37;;;;;;;;;;;11.50;99.90;;;;;;12564633;28;19981;-36
2023/10/21 01:09:39;;;;;;;;;;;11.50;99.90;;;;;;12566321;28;20403;-36
2023/10/21 01:15:41;;;;;;;;;;;11.50;99.90;;;;;;12564897;28;19932;-36
2023/10/21 01:21:43;;;;;;;;;;;11.60;99.90;;;;;;12597087;28;19964;-36
2023/10/21 01:27:45;;;;;;;;;;;11.50;99.90;;;;;;12622931;28;20332;-37
2023/10/21 01:33:47;;;;;;;;;;;11.50;99.90;;;;;;12609623;28;20015;-37
2023/10/21 01:39:49;;;;;;;;;;;11.50;99.90;;;;;;12589647;28;19932;-36
2023/10/21 01:45:50;;;;;;;;;;;11.60;99.90;;;;;;12613262;28;19932;-36
2023/10/21 01:51:52;;;;;;;;;;;11.60;99.90;;;;;;12612692;28;19978;-36
2023/10/21 01:57:54;;;;;;;;;;;11.70;99.90;;;;;;12612408;28;19960;-38
2023/10/21 02:03:56;;;;;;;;;;;11.70;99.90;;;;;;12618417;28;19927;-37
2023/10/21 02:09:58;;;;;;;;;;;11.70;99.90;;;;;;12624784;28;19971;-37
2023/10/21 02:16:00;;;;;;;;;;;11.90;99.90;;;;;;12620957;28;19928;-37
2023/10/21 02:22:01;;;;;;;;;;;11.90;99.90;;;;;;12620362;28;19954;-37
2023/10/21 02:28:03;;;;;;;;;;;12.00;99.90;;;;;;12614807;28;19935;-36
2023/10/21 02:34:05;;;;;;;;;;;12.10;99.90;;;;;;12624436;28;20110;-37
2023/10/21 02:40:08;;;;;;;;;;;12.20;99.90;;;;;;12605723;28;20367;-37
2023/10/21 02:46:10;;;;;;;;;;;12.20;99.90;;;;;;12617623;28;19985;-36
2023/10/21 02:52:13;;;;;;;;;;;12.20;99.90;;;;;;12615163;28;20280;-36
2023/10/21 02:58:15;;;;;;;;;;;12.10;99.90;;;;;;12619954;28;19939;-36
2023/10/21 03:04:16;;;;;;;;;;;12.10;99.90;;;;;;12620595;28;19973;-37
2023/10/21 03:10:18;;;;;;;;;;;11.90;99.90;;;;;;12618568;28;19959;-37
2023/10/21 03:16:20;;;;;;;;;;;11.50;99.90;;;;;;12622677;28;20019;-36
2023/10/21 03:22:21;;;;;;;;;;;11.40;99.90;;;;;;12613049;28;20446;-35
2023/10/21 03:28:24;;;;;;;;;;;11.30;99.90;;;;;;12617410;28;20444;-36
2023/10/21 03:34:25;;;;;;;;;;;11.20;99.90;;;;;;12615751;28;20015;-36
2023/10/21 03:40:27;;;;;;;;;;;11.10;99.90;;;;;;12609129;28;20352;-36
2023/10/21 03:46:30;;;;;;;;;;;11.00;99.90;;;;;;12618868;28;20470;-36
2023/10/21 03:52:31;;;;;;;;;;;10.90;99.90;;;;;;12615331;28;19935;-36
2023/10/21 03:58:33;;;;;;;;;;;10.80;99.90;;;;;;12625109;28;20062;-35
2023/10/21 04:04:35;;;;;;;;;;;11.00;99.90;;;;;;12621751;28;20160;-36
2023/10/21 04:10:37;;;;;;;;;;;11.20;99.90;;;;;;12618037;28;19939;-36
2023/10/21 04:16:44;;;;;;;;;;;11.90;99.90;;;;;;12599747;28;19960;-36
2023/10/21 04:22:46;;;;;;;;;;;12.00;99.90;;;;;;12622089;28;19928;-36
2023/10/21 04:28:49;;;;;;;;;;;12.20;99.90;;;;;;12610078;28;20459;-36
2023/10/21 04:34:50;;;;;;;;;;;12.20;99.90;;;;;;12605368;28;20472;-37
2023/10/21 04:40:53;;;;;;;;;;;12.20;99.90;;;;;;12603580;28;19932;-36
2023/10/21 04:46:55;;;;;;;;;;;12.20;99.90;;;;;;12615216;28;19971;-37
2023/10/21 04:52:57;;;;;;;;;;;12.20;99.90;;;;;;12600600;28;20380;-36
2023/10/21 04:58:59;;;;;;;;;;;12.20;99.90;;;;;;12613886;28;19937;-36
2023/10/21 05:05:02;;;;;;;;;;;12.20;99.90;;;;;;12616732;28;20031;-36
2023/10/21 05:11:04;;;;;;;;;;;12.20;99.90;;;;;;12614770;28;20375;-36
2023/10/21 05:17:05;;;;;;;;;;;11.90;99.90;;;;;;12592589;28;20394;-36
2023/10/21 05:23:08;;;;;;;;;;;11.70;99.90;;;;;;12621658;28;19932;-36
2023/10/21 05:29:09;;;;;;;;;;;11.60;99.90;;;;;;12627696;28;19972;-36
2023/10/21 05:35:11;;;;;;;;;;;11.60;99.90;;;;;;12603228;28;19932;-36
2023/10/21 05:41:13;;;;;;;;;;;11.50;99.90;;;;;;12616715;28;19924;-36
2023/10/21 05:47:15;;;;;;;;;;;11.40;99.90;;;;;;12620366;28;19987;-36
2023/10/21 05:53:16;;;;;;;;;;;11.40;99.90;;;;;;12617325;28;19932;-36
2023/10/21 05:59:19;;;;;;;;;;;11.30;99.90;;;;;;12612123;28;20481;-36
2023/10/21 06:05:20;;;;;;;;;;;11.30;99.90;;;;;;12616995;28;20438;-36
2023/10/21 06:11:22;;;;;;;;;;;11.40;99.90;;;;;;12624697;28;19977;-36
2023/10/21 06:17:24;;;;;;;;;;;11.40;99.90;;;;;;12622107;28;19943;-36
2023/10/21 06:23:26;;;;;;;;;;;11.30;99.90;;;;;;12592035;28;19927;-36
2023/10/21 06:29:28;;;;;;;;;;;11.30;99.90;;;;;;12610223;28;19975;-36
2023/10/21 06:35:29;;;;;;;;;;;11.40;99.90;;;;;;12608875;28;20308;-36
2023/10/21 06:41:31;;;;;;;;;;;11.30;99.90;;;;;;12619416;28;20028;-36
2023/10/21 06:47:33;;;;;;;;;;;11.30;99.90;;;;;;12616790;28;19981;-36
2023/10/21 06:53:35;;;;;;;;;;;11.30;99.90;;;;;;12616605;28;20338;-36
2023/10/21 06:59:36;;;;;;;;;;;11.30;99.90;;;;;;12615855;28;19928;-37
2023/10/21 07:05:40;;;;;;;;;;;11.20;99.90;;;;;;12617728;28;20429;-37
2023/10/21 07:11:42;;;;;;;;;;;11.10;99.90;;;;;;12613967;28;19989;-37
2023/10/21 07:17:44;;;;;;;;;;;11.20;99.90;;;;;;12619946;28;19954;-36
2023/10/21 07:23:46;;;;;;;;;;;11.30;99.90;;;;;;12605759;28;19928;-36
2023/10/21 07:29:47;;;;;;;;;;;11.30;99.90;;;;;;12595709;28;20521;-36
2023/10/21 07:35:50;;;;;;;;;;;11.50;99.90;;;;;;12595464;28;20011;-35
2023/10/21 07:41:53;;;;;;;;;;;11.60;99.90;;;;;;12611798;28;19924;-36
2023/10/21 07:47:55;;;;;;;;;;;11.80;99.90;;;;;;12589431;28;19928;-36
2023/10/21 07:53:57;;;;;;;;;;;12.00;99.90;;;;;;12607734;28;19932;-36
2023/10/21 07:59:59;;;;;;;;;;;12.20;99.90;;;;;;12608192;28;19932;-37
2023/10/21 08:06:01;;;;;;;;;;;12.60;99.90;;;;;;12610706;28;20472;-36
2023/10/21 08:12:03;;;;;;;;;;;13.00;99.90;;;;;;12612302;28;20371;-36
2023/10/21 08:18:05;;;;;;;;;;;13.20;99.90;;;;;;12611139;28;19924;-36
2023/10/21 08:24:07;;;;;;;;;;;13.40;99.90;;;;;;12615029;28;20466;-36
2023/10/21 08:30:09;;;;;;;;;;;13.30;99.90;;;;;;12604219;28;19932;-36
2023/10/21 08:36:20;;;;;;;;;;;13.30;99.90;;;;;;12603677;28;19932;-36
2023/10/21 08:42:25;;;;;;;;;;;13.20;99.90;;;;;;12611688;28;19943;-36
2023/10/21 08:48:44;;;;;;;;;;;13.20;99.90;;;;;;12608015;28;19981;-36
2023/10/21 08:54:46;;;;;;;;;;;13.30;99.90;;;;;;12601856;28;19934;-35
2023/10/21 09:00:48;;;;;;;;;;;13.20;99.90;;;;;;12598389;28;20968;-37
2023/10/21 09:06:53;;;;;;;;;;;13.30;99.90;;;;;;12611248;28;20490;-36
2023/10/21 09:12:55;;;;;;;;;;;13.30;99.90;;;;;;12598163;28;20031;-36
2023/10/21 09:19:00;;;;;;;;;;;13.40;99.90;;;;;;12601572;28;19938;-36
2023/10/21 09:25:20;;;;;;;;;;;13.50;99.90;;;;;;12601806;28;20148;-36
2023/10/21 09:31:22;;;;;;;;;;;13.60;99.90;;;;;;12604273;28;20001;-36
2023/10/21 09:37:26;;;;;;;;;;;13.60;99.90;;;;;;12587268;28;19999;-36
2023/10/21 09:43:28;;;;;;;;;;;13.60;99.90;;;;;;12605436;28;19976;-36
2023/10/21 09:49:35;;;;;;;;;;;13.80;99.90;;;;;;12591993;28;19937;-36
2023/10/21 09:55:37;;;;;;;;;;;13.90;99.90;;;;;;12602324;28;19935;-37
2023/10/21 10:01:39;;;;;;;;;;;14.10;99.90;;;;;;12548471;28;19932;-36
2023/10/21 10:07:44;;;;;;;;;;;14.10;99.90;;;;;;12584664;28;19932;-36
2023/10/21 10:13:48;;;;;;;;;;;14.20;99.90;;;;;;12604953;28;20037;-36
2023/10/21 10:19:51;;;;;;;;;;;14.40;99.90;;;;;;12615457;28;19932;-36
2023/10/21 10:25:54;;;;;;;;;;;14.50;99.90;;;;;;12606737;28;19928;-37
2023/10/21 10:32:15;;;;;;;;;;;14.90;99.90;;;;;;12588851;28;19928;-37
2023/10/21 10:38:20;;;;;;;;;;;14.90;99.90;;;;;;12605255;28;19927;-37
2023/10/21 10:44:22;;;;;;;;;;;14.80;99.90;;;;;;12615539;28;19988;-37
2023/10/21 10:50:24;;;;;;;;;;;14.50;99.90;;;;;;12618792;28;19934;-36
2023/10/21 10:56:39;;;;;;;;;;;14.50;99.90;;;;;;12615418;28;19924;-36
2023/10/21 11:02:41;;;;;;;;;;;14.50;99.90;;;;;;12616989;28;19931;-37
2023/10/21 11:08:43;;;;;;;;;;;14.30;99.90;;;;;;12618386;28;19932;-36
2023/10/21 11:14:46;;;;;;;;;;;14.80;99.90;;;;;;12616792;28;20396;-37
2023/10/21 11:20:48;;;;;;;;;;;15.40;99.90;;;;;;12586769;28;19927;-37
2023/10/21 11:26:51;;;;;;;;;;;15.50;99.90;;;;;;12611284;28;19932;-36
2023/10/21 11:32:54;;;;;;;;;;;15.10;99.90;;;;;;12609456;28;19935;-37
2023/10/21 11:38:57;;;;;;;;;;;15.10;99.90;;;;;;12614661;28;19935;-36
2023/10/21 11:45:00;;;;;;;;;;;15.50;99.90;;;;;;12614068;28;19927;-36
2023/10/21 11:51:02;;;;;;;;;;;15.90;99.90;;;;;;12616525;28;20016;-37
2023/10/21 12:29:08;;;;;;;;;;;15.20;99.90;;;;;;12610123;28;19931;-36
2023/10/21 12:34:43;;;;;;;;;;;15.10;99.90;;;;;;12609280;28;19932;-36
2023/10/21 12:41:15;;;;;;;;;;;14.90;99.90;;;;;;12607358;28;19928;-36
2023/10/21 12:47:18;;;;;;;;;;;14.90;99.90;;;;;;12599757;28;19932;-36
2023/10/21 12:53:20;;;;;;;;;;;15.30;99.90;;;;;;12589347;28;19929;-36
2023/10/21 12:59:22;;;;;;;;;;;15.70;99.90;;;;;;12596870;28;19935;-37
2023/10/21 13:05:27;;;;;;;;;;;15.50;99.90;;;;;;12606263;28;19972;-37
2023/10/21 13:11:29;;;;;;;;;;;15.30;99.90;;;;;;12587198;28;19935;-37
2023/10/21 13:17:31;;;;;;;;;;;15.50;99.90;;;;;;12546286;28;20274;-37
2023/10/21 13:23:34;;;;;;;;;;;15.70;99.90;;;;;;12545690;28;20022;-36
2023/10/21 13:29:36;;;;;;;;;;;15.70;99.90;;;;;;12542553;28;19993;-36
2023/10/21 13:35:38;;;;;;;;;;;15.70;99.90;;;;;;12535568;28;19936;-36
2023/10/21 13:41:39;;;;;;;;;;;15.60;99.90;;;;;;12551224;28;19929;-36
2023/10/21 13:47:43;;;;;;;;;;;15.50;99.90;;;;;;12554832;28;19955;-36
2023/10/21 13:53:45;;;;;;;;;;;15.20;99.90;;;;;;12554475;28;20192;-37
2023/10/21 13:59:47;;;;;;;;;;;14.90;99.90;;;;;;12539508;28;20315;-36
2023/10/21 14:05:50;;;;;;;;;;;15.10;99.90;;;;;;12551820;28;19933;-37
2023/10/21 14:11:52;;;;;;;;;;;15.10;99.90;;;;;;12554452;28;20376;-37
2023/10/21 14:17:54;;;;;;;;;;;15.20;99.90;;;;;;12591864;28;19977;-36
2023/10/21 14:23:56;;;;;;;;;;;15.40;99.90;;;;;;12595016;28;20276;-36
2023/10/21 14:30:03;;;;;;;;;;;15.40;99.90;;;;;;12597483;28;19932;-36
2023/10/21 14:36:10;;;;;;;;;;;15.20;99.90;;;;;;12597877;28;19993;-36
2023/10/21 14:42:13;;;;;;;;;;;15.00;99.90;;;;;;12595674;28;20470;-36
2023/10/21 14:48:18;;;;;;;;;;;15.00;99.90;;;;;;12611483;28;19927;-36
2023/10/21 14:54:20;;;;;;;;;;;14.90;99.90;;;;;;12612553;28;19928;-35
2023/10/21 15:00:25;;;;;;;;;;;14.80;99.90;;;;;;12626490;28;20023;-36
2023/10/21 15:06:29;;;;;;;;;;;14.70;99.90;;;;;;12617394;28;19940;-36
2023/10/21 15:12:32;;;;;;;;;;;14.60;99.90;;;;;;12588565;28;20571;-36
2023/10/21 15:18:34;;;;;;;;;;;14.50;99.90;;;;;;12557312;28;19951;-36
2023/10/21 15:24:35;;;;;;;;;;;14.50;99.90;;;;;;12556757;28;19935;-36
2023/10/21 15:30:37;;;;;;;;;;;14.60;99.90;;;;;;12548522;28;19929;-36
2023/10/21 15:36:39;;;;;;;;;;;14.50;99.90;;;;;;12563404;28;19982;-36
2023/10/21 15:42:42;;;;;;;;;;;14.50;99.90;;;;;;12571111;28;19932;-36
2023/10/21 15:48:44;;;;;;;;;;;14.40;99.90;;;;;;12563597;28;20281;-36
2023/10/21 15:54:46;;;;;;;;;;;14.20;99.90;;;;;;12551940;28;19928;-36
2023/10/21 16:00:48;;;;;;;;;;;14.10;99.90;;;;;;12554496;28;19972;-36
2023/10/21 16:06:50;;;;;;;;;;;14.00;99.90;;;;;;12521384;28;20329;-36
2023/10/21 16:12:51;;;;;;;;;;;13.90;99.90;;;;;;12575359;28;20522;-35
2023/10/21 16:18:53;;;;;;;;;;;13.90;99.90;;;;;;12608844;28;20454;-36
2023/10/21 16:24:55;;;;;;;;;;;13.90;99.90;;;;;;12609474;28;19932;-36
2023/10/21 16:30:59;;;;;;;;;;;13.90;99.90;;;;;;12606313;28;19932;-36
2023/10/21 16:37:02;;;;;;;;;;;13.90;99.90;;;;;;12611359;28;20885;-36
2023/10/21 16:43:03;;;;;;;;;;;13.90;99.90;;;;;;12606672;28;19928;-36
2023/10/21 16:49:07;;;;;;;;;;;13.90;99.90;;;;;;12601619;28;19928;-36
2023/10/21 16:55:09;;;;;;;;;;;13.80;99.90;;;;;;12607487;28;19972;-35
2023/10/21 17:01:10;;;;;;;;;;;13.60;99.90;;;;;;12613625;28;19928;-36
2023/10/21 17:07:12;;;;;;;;;;;13.50;99.90;;;;;;12593884;28;20038;-36
2023/10/21 17:13:15;;;;;;;;;;;13.40;99.90;;;;;;12600309;28;19932;-36
2023/10/21 17:19:18;;;;;;;;;;;13.40;99.90;;;;;;12615688;28;19931;-35
2023/10/21 17:25:20;;;;;;;;;;;13.30;99.90;;;;;;12618986;28;20491;-36
2023/10/21 17:31:22;;;;;;;;;;;13.40;99.90;;;;;;12615452;28;19977;-36
2023/10/21 17:37:23;;;;;;;;;;;13.30;99.90;;;;;;12616083;28;19924;-36
2023/10/21 17:43:25;;;;;;;;;;;13.40;99.90;;;;;;12621438;28;20381;-36
2023/10/21 17:49:27;;;;;;;;;;;13.20;99.90;;;;;;12629655;28;20014;-36
2023/10/21 17:55:29;;;;;;;;;;;13.00;99.90;;;;;;12603949;28;19924;-36
2023/10/21 18:01:31;;;;;;;;;;;13.10;99.90;;;;;;12615616;28;20428;-36
2023/10/21 18:07:34;;;;;;;;;;;13.00;99.90;;;;;;12615611;28;19935;-36
2023/10/21 18:13:36;;;;;;;;;;;12.90;99.90;;;;;;12590917;28;20418;-36
2023/10/21 18:19:38;;;;;;;;;;;12.90;99.90;;;;;;12539349;28;19932;-36
2023/10/21 18:25:40;;;;;;;;;;;12.90;99.90;;;;;;12527940;28;19933;-36
2023/10/21 18:31:41;;;;;;;;;;;12.90;99.90;;;;;;12538342;28;20361;-36
2023/10/21 18:37:43;;;;;;;;;;;12.90;99.90;;;;;;12534403;28;20297;-35
2023/10/21 18:43:45;;;;;;;;;;;12.80;99.90;;;;;;12548937;28;19929;-35
2023/10/21 18:49:47;;;;;;;;;;;12.90;99.90;;;;;;12549467;28;19929;-35
2023/10/21 18:55:50;;;;;;;;;;;12.90;99.90;;;;;;12541512;28;19978;-35
2023/10/21 19:01:57;;;;;;;;;;;12.80;99.90;;;;;;12543241;28;19925;-35
2023/10/21 19:08:00;;;;;;;;;;;12.80;99.90;;;;;;12539751;28;20622;-36
2023/10/21 19:14:03;;;;;;;;;;;12.80;99.90;;;;;;12557366;28;19932;-35
2023/10/21 19:20:08;;;;;;;;;;;12.70;99.90;;;;;;12607533;28;19928;-35
2023/10/21 19:26:10;;;;;;;;;;;12.70;99.90;;;;;;12616827;28;20396;-35
2023/10/21 19:32:12;;;;;;;;;;;12.70;99.90;;;;;;12587427;28;19998;-36
2023/10/21 19:38:14;;;;;;;;;;;12.70;99.90;;;;;;12616308;28;20015;-36
2023/10/21 19:44:17;;;;;;;;;;;12.70;99.90;;;;;;12611583;28;19981;-36
2023/10/21 19:50:26;;;;;;;;;;;12.70;99.90;;;;;;12607030;28;20037;-36
2023/10/21 19:56:28;;;;;;;;;;;12.70;99.90;;;;;;12621575;28;19923;-36
2023/10/21 20:02:30;;;;;;;;;;;12.70;99.90;;;;;;12613193;28;19928;-35
2023/10/21 20:08:32;;;;;;;;;;;12.80;99.90;;;;;;12616059;28;20340;-36
2023/10/21 20:14:33;;;;;;;;;;;12.70;99.90;;;;;;12590545;28;19939;-36
2023/10/21 20:20:38;;;;;;;;;;;12.70;99.90;;;;;;12544893;28;20194;-36
2023/10/21 20:26:42;;;;;;;;;;;12.70;99.90;;;;;;12542573;28;21328;-36
2023/10/21 20:32:45;;;;;;;;;;;12.60;99.90;;;;;;12548147;28;20396;-36
2023/10/21 20:38:47;;;;;;;;;;;12.60;99.90;;;;;;12544809;28;19960;-36
2023/10/21 20:44:49;;;;;;;;;;;12.70;99.90;;;;;;12540230;28;20005;-35
2023/10/21 20:50:51;;;;;;;;;;;12.70;99.90;;;;;;12547062;28;19924;-36
2023/10/21 20:56:53;;;;;;;;;;;12.70;99.90;;;;;;12548500;28;20019;-36
2023/10/21 21:02:54;;;;;;;;;;;12.60;99.90;;;;;;12529819;28;20196;-36
2023/10/21 21:08:57;;;;;;;;;;;12.60;99.90;;;;;;12545823;28;19928;-36
2023/10/21 21:15:01;;;;;;;;;;;12.60;99.90;;;;;;12568281;28;19975;-35
2023/10/21 21:21:03;;;;;;;;;;;12.60;99.90;;;;;;12617996;28;19932;-36
2023/10/21 21:27:04;;;;;;;;;;;12.60;99.90;;;;;;12605318;28;19939;-36
2023/10/21 21:33:07;;;;;;;;;;;12.50;99.90;;;;;;12616932;28;19973;-36
2023/10/21 21:39:13;;;;;;;;;;;12.60;99.90;;;;;;12608824;28;19935;-35
2023/10/21 21:45:14;;;;;;;;;;;12.50;99.90;;;;;;12616776;28;19928;-36
2023/10/21 21:51:16;;;;;;;;;;;12.60;99.90;;;;;;12613474;28;20359;-36
2023/10/21 21:57:18;;;;;;;;;;;12.70;99.90;;;;;;12614880;28;19936;-36
2023/10/21 22:03:20;;;;;;;;;;;12.70;99.90;;;;;;12626392;28;20417;-36
2023/10/21 22:09:22;;;;;;;;;;;12.70;99.90;;;;;;12597493;28;20371;-35
2023/10/21 22:15:24;;;;;;;;;;;12.70;99.90;;;;;;12581551;28;20354;-35
2023/10/21 22:21:25;;;;;;;;;;;12.70;99.90;;;;;;12551325;28;19932;-35
2023/10/21 22:27:27;;;;;;;;;;;12.60;99.90;;;;;;12558236;28;19929;-35
2023/10/21 22:33:29;;;;;;;;;;;12.60;99.90;;;;;;12545729;28;20427;-36
2023/10/21 22:39:32;;;;;;;;;;;12.60;99.90;;;;;;12552244;28;20031;-36
2023/10/21 22:45:36;;;;;;;;;;;12.50;99.90;;;;;;12549689;28;19932;-36
2023/10/21 22:51:38;;;;;;;;;;;12.50;99.90;;;;;;12549823;28;19931;-36
2023/10/21 22:57:40;;;;;;;;;;;12.60;99.90;;;;;;12547881;28;20448;-35
2023/10/21 23:03:42;;;;;;;;;;;12.50;99.90;;;;;;12558445;28;20533;-35
2023/10/21 23:09:49;;;;;;;;;;;12.50;99.90;;;;;;12551245;28;19933;-36
2023/10/21 23:15:51;;;;;;;;;;;12.50;99.90;;;;;;12548069;28;19979;-36
2023/10/21 23:21:52;;;;;;;;;;;12.60;99.90;;;;;;12564725;28;20484;-36
2023/10/21 23:27:54;;;;;;;;;;;12.50;99.90;;;;;;12556347;28;19933;-36
2023/10/21 23:33:56;;;;;;;;;;;12.40;99.90;;;;;;12561736;28;20015;-36
2023/10/21 23:39:58;;;;;;;;;;;12.30;99.90;;;;;;12567141;28;19928;-36
2023/10/21 23:46:05;;;;;;;;;;;12.30;99.90;;;;;;12560153;28;20027;-36
2023/10/21 23:52:07;;;;;;;;;;;12.30;99.90;;;;;;12571437;28;20368;-36
2023/10/21 23:58:08;;;;;;;;;;;12.20;99.90;;;;;;12568355;28;19928;-36
